CheckWX is a tool to help pilots better visualize weather data.  It is not intended as a substitute for an official pre-flight weather briefing.

02:32:56 UTC

BGBW METAR
Narsarsuaq Airport
Narsarsuaq, Greenland
Current

43 mins ago

BGBW 190150Z AUTO 07011KT 9999NDV BKN100/// OVC120/// 08/M07 Q1009
Observed
Sep-19 @ 01:50 UTC
Wind
  • 070° at 11 KTS
Visibility
Cloud Levels
  • Broken at 10,000' AGL
  • Overcast at 12,000' AGL
Temperature
C / 46°F
Dewpoint
-7°C / 19°F
Humidity
34%
Altimeter
29.79" Hg
Pressure
1008.92 hPa
Previous

2 hours ago

BGBW 190050Z AUTO 07011KT 9999NDV FEW080/// BKN130/// 09/M07 Q1010
Observed
Sep-19 @ 00:50 UTC
Wind
  • 070° at 11 KTS
Visibility
Cloud Levels
  • Few at 8,000' AGL
  • Broken at 13,000' AGL
Temperature
C / 48°F
Dewpoint
-7°C / 19°F
Humidity
32%
Altimeter
29.82" Hg
Pressure
1009.92 hPa
Previous

3 hours ago

BGBW 182350Z AUTO 06011KT 9999NDV FEW100/// OVC130/// 09/M06 Q1010
Observed
Sep-18 @ 23:50 UTC
Wind
  • 060° at 11 KTS
Visibility
Cloud Levels
  • Few at 10,000' AGL
  • Overcast at 13,000' AGL
Temperature
C / 48°F
Dewpoint
-6°C / 21°F
Humidity
34%
Altimeter
29.82" Hg
Pressure
1009.92 hPa